sensor_id;sensor_type;location;lat;lon;timestamp;P1;durP1;ratioP1;P2;durP2;ratioP2
27642;SDS011;15053;48.618;10.024;2022-12-26T00:00:25;9.45;;;5.18;;
27642;SDS011;15053;48.618;10.024;2022-12-26T00:02:52;9.43;;;5.05;;
27642;SDS011;15053;48.618;10.024;2022-12-26T00:05:18;6.35;;;4.80;;
27642;SDS011;15053;48.618;10.024;2022-12-26T00:07:45;6.82;;;4.47;;
27642;SDS011;15053;48.618;10.024;2022-12-26T00:10:11;6.03;;;4.45;;
27642;SDS011;15053;48.618;10.024;2022-12-26T00:12:38;13.07;;;6.28;;
27642;SDS011;15053;48.618;10.024;2022-12-26T00:15:06;6.32;;;4.50;;
27642;SDS011;15053;48.618;10.024;2022-12-26T00:17:33;7.78;;;4.40;;
27642;SDS011;15053;48.618;10.024;2022-12-26T00:20:00;7.45;;;4.35;;
27642;SDS011;15053;48.618;10.024;2022-12-26T00:22:26;5.68;;;4.40;;
27642;SDS011;15053;48.618;10.024;2022-12-26T00:24:52;6.05;;;3.88;;
27642;SDS011;15053;48.618;10.024;2022-12-26T00:27:19;5.82;;;3.72;;
27642;SDS011;15053;48.618;10.024;2022-12-26T00:29:46;4.60;;;3.70;;
27642;SDS011;15053;48.618;10.024;2022-12-26T00:32:12;6.40;;;3.80;;
27642;SDS011;15053;48.618;10.024;2022-12-26T00:34:39;5.68;;;4.18;;
27642;SDS011;15053;48.618;10.024;2022-12-26T00:37:05;7.25;;;3.80;;
27642;SDS011;15053;48.618;10.024;2022-12-26T00:39:32;4.80;;;3.60;;
27642;SDS011;15053;48.618;10.024;2022-12-26T00:41:58;6.10;;;4.00;;
27642;SDS011;15053;48.618;10.024;2022-12-26T00:44:25;8.68;;;4.28;;
27642;SDS011;15053;48.618;10.024;2022-12-26T00:46:51;6.82;;;4.65;;
27642;SDS011;15053;48.618;10.024;2022-12-26T00:49:18;6.55;;;3.80;;
27642;SDS011;15053;48.618;10.024;2022-12-26T00:51:45;4.95;;;4.18;;
27642;SDS011;15053;48.618;10.024;2022-12-26T00:54:11;5.18;;;3.75;;
27642;SDS011;15053;48.618;10.024;2022-12-26T00:56:38;4.97;;;3.70;;
27642;SDS011;15053;48.618;10.024;2022-12-26T00:59:04;6.47;;;4.38;;
27642;SDS011;15053;48.618;10.024;2022-12-26T01:01:30;5.18;;;3.85;;
27642;SDS011;15053;48.618;10.024;2022-12-26T01:03:57;6.20;;;4.35;;
27642;SDS011;15053;48.618;10.024;2022-12-26T01:06:24;6.88;;;4.03;;
27642;SDS011;15053;48.618;10.024;2022-12-26T01:08:51;7.85;;;4.20;;
27642;SDS011;15053;48.618;10.024;2022-12-26T01:11:18;5.18;;;3.85;;
27642;SDS011;15053;48.618;10.024;2022-12-26T01:14:03;6.05;;;3.83;;
27642;SDS011;15053;48.618;10.024;2022-12-26T01:16:30;5.82;;;3.90;;
27642;SDS011;15053;48.618;10.024;2022-12-26T01:18:56;4.82;;;3.97;;
27642;SDS011;15053;48.618;10.024;2022-12-26T01:21:23;5.43;;;3.80;;
27642;SDS011;15053;48.618;10.024;2022-12-26T01:23:49;4.15;;;3.45;;
27642;SDS011;15053;48.618;10.024;2022-12-26T01:26:15;5.50;;;3.70;;
27642;SDS011;15053;48.618;10.024;2022-12-26T01:28:46;4.97;;;3.70;;
27642;SDS011;15053;48.618;10.024;2022-12-26T01:31:13;4.75;;;3.50;;
27642;SDS011;15053;48.618;10.024;2022-12-26T01:33:40;5.47;;;3.85;;
27642;SDS011;15053;48.618;10.024;2022-12-26T01:36:07;4.15;;;3.35;;
27642;SDS011;15053;48.618;10.024;2022-12-26T01:38:33;5.50;;;3.42;;
27642;SDS011;15053;48.618;10.024;2022-12-26T01:41:00;5.18;;;3.55;;
27642;SDS011;15053;48.618;10.024;2022-12-26T01:43:53;5.47;;;3.70;;
27642;SDS011;15053;48.618;10.024;2022-12-26T01:46:26;5.72;;;3.80;;
27642;SDS011;15053;48.618;10.024;2022-12-26T01:48:57;6.43;;;4.47;;
27642;SDS011;15053;48.618;10.024;2022-12-26T01:51:32;5.30;;;3.80;;
27642;SDS011;15053;48.618;10.024;2022-12-26T01:54:04;4.88;;;3.92;;
27642;SDS011;15053;48.618;10.024;2022-12-26T01:56:53;5.30;;;3.60;;
27642;SDS011;15053;48.618;10.024;2022-12-26T01:59:21;6.80;;;4.22;;
27642;SDS011;15053;48.618;10.024;2022-12-26T02:01:52;4.95;;;3.45;;
27642;SDS011;15053;48.618;10.024;2022-12-26T02:04:27;6.15;;;3.92;;
27642;SDS011;15053;48.618;10.024;2022-12-26T02:07:16;4.97;;;4.03;;
27642;SDS011;15053;48.618;10.024;2022-12-26T02:09:42;7.15;;;4.40;;
27642;SDS011;15053;48.618;10.024;2022-12-26T02:12:17;5.20;;;3.83;;
27642;SDS011;15053;48.618;10.024;2022-12-26T02:15:04;4.60;;;3.85;;
27642;SDS011;15053;48.618;10.024;2022-12-26T02:17:36;4.88;;;4.05;;
27642;SDS011;15053;48.618;10.024;2022-12-26T02:26:09;6.53;;;4.35;;
27642;SDS011;15053;48.618;10.024;2022-12-26T02:40:34;7.43;;;4.40;;
27642;SDS011;15053;48.618;10.024;2022-12-26T02:43:37;6.22;;;4.57;;
27642;SDS011;15053;48.618;10.024;2022-12-26T02:46:32;16.88;;;4.00;;
27642;SDS011;15053;48.618;10.024;2022-12-26T02:52:23;9.88;;;4.93;;
27642;SDS011;15053;48.618;10.024;2022-12-26T02:55:24;6.72;;;3.97;;
27642;SDS011;15053;48.618;10.024;2022-12-26T02:58:22;6.72;;;4.45;;
27642;SDS011;15053;48.618;10.024;2022-12-26T03:01:25;6.32;;;4.38;;
27642;SDS011;15053;48.618;10.024;2022-12-26T03:04:16;6.63;;;4.60;;
27642;SDS011;15053;48.618;10.024;2022-12-26T03:07:10;7.15;;;4.32;;
27642;SDS011;15053;48.618;10.024;2022-12-26T03:10:01;5.55;;;3.90;;
27642;SDS011;15053;48.618;10.024;2022-12-26T03:12:55;9.20;;;5.00;;
27642;SDS011;15053;48.618;10.024;2022-12-26T03:15:43;7.15;;;4.47;;
27642;SDS011;15053;48.618;10.024;2022-12-26T03:18:37;5.43;;;4.22;;
27642;SDS011;15053;48.618;10.024;2022-12-26T03:21:26;7.97;;;5.18;;
27642;SDS011;15053;48.618;10.024;2022-12-26T03:23:56;5.25;;;4.18;;
27642;SDS011;15053;48.618;10.024;2022-12-26T03:26:30;7.00;;;4.93;;
27642;SDS011;15053;48.618;10.024;2022-12-26T03:29:07;6.15;;;4.78;;
27642;SDS011;15053;48.618;10.024;2022-12-26T03:31:57;8.60;;;5.23;;
27642;SDS011;15053;48.618;10.024;2022-12-26T03:34:24;6.72;;;5.13;;
27642;SDS011;15053;48.618;10.024;2022-12-26T03:49:11;7.15;;;5.05;;
27642;SDS011;15053;48.618;10.024;2022-12-26T03:55:15;8.57;;;4.85;;
27642;SDS011;15053;48.618;10.024;2022-12-26T03:58:23;6.80;;;4.22;;
27642;SDS011;15053;48.618;10.024;2022-12-26T04:01:18;7.40;;;4.05;;
27642;SDS011;15053;48.618;10.024;2022-12-26T04:04:09;8.40;;;4.40;;
27642;SDS011;15053;48.618;10.024;2022-12-26T04:06:59;8.77;;;4.25;;
27642;SDS011;15053;48.618;10.024;2022-12-26T04:09:54;7.78;;;4.80;;
27642;SDS011;15053;48.618;10.024;2022-12-26T04:12:44;8.15;;;4.85;;
27642;SDS011;15053;48.618;10.024;2022-12-26T04:15:36;6.82;;;4.60;;
27642;SDS011;15053;48.618;10.024;2022-12-26T04:19:11;7.13;;;4.32;;
27642;SDS011;15053;48.618;10.024;2022-12-26T04:21:42;5.57;;;3.95;;
27642;SDS011;15053;48.618;10.024;2022-12-26T04:24:33;7.68;;;4.38;;
27642;SDS011;15053;48.618;10.024;2022-12-26T04:27:24;6.93;;;4.43;;
27642;SDS011;15053;48.618;10.024;2022-12-26T04:30:11;5.35;;;3.83;;
27642;SDS011;15053;48.618;10.024;2022-12-26T04:33:00;6.47;;;4.50;;
27642;SDS011;15053;48.618;10.024;2022-12-26T04:35:51;6.43;;;4.28;;
27642;SDS011;15053;48.618;10.024;2022-12-26T04:38:44;6.32;;;4.38;;
27642;SDS011;15053;48.618;10.024;2022-12-26T04:41:34;6.15;;;4.20;;
27642;SDS011;15053;48.618;10.024;2022-12-26T04:44:20;5.32;;;4.13;;
27642;SDS011;15053;48.618;10.024;2022-12-26T04:46:49;10.25;;;4.55;;
27642;SDS011;15053;48.618;10.024;2022-12-26T04:49:18;5.35;;;4.03;;
27642;SDS011;15053;48.618;10.024;2022-12-26T04:52:10;5.43;;;4.28;;
27642;SDS011;15053;48.618;10.024;2022-12-26T04:54:38;5.75;;;4.18;;
27642;SDS011;15053;48.618;10.024;2022-12-26T04:57:06;5.43;;;3.65;;
27642;SDS011;15053;48.618;10.024;2022-12-26T04:59:33;6.47;;;4.50;;
27642;SDS011;15053;48.618;10.024;2022-12-26T05:02:00;15.38;;;4.97;;
27642;SDS011;15053;48.618;10.024;2022-12-26T05:04:45;6.75;;;4.68;;
27642;SDS011;15053;48.618;10.024;2022-12-26T05:07:31;6.25;;;4.30;;
27642;SDS011;15053;48.618;10.024;2022-12-26T05:10:20;6.38;;;4.72;;
27642;SDS011;15053;48.618;10.024;2022-12-26T05:12:48;8.25;;;5.07;;
27642;SDS011;15053;48.618;10.024;2022-12-26T05:15:15;6.30;;;4.95;;
27642;SDS011;15053;48.618;10.024;2022-12-26T05:17:42;7.15;;;4.90;;
27642;SDS011;15053;48.618;10.024;2022-12-26T05:20:27;11.27;;;5.47;;
27642;SDS011;15053;48.618;10.024;2022-12-26T05:23:18;7.03;;;4.75;;
27642;SDS011;15053;48.618;10.024;2022-12-26T05:26:08;6.50;;;4.65;;
27642;SDS011;15053;48.618;10.024;2022-12-26T05:28:58;7.15;;;4.57;;
27642;SDS011;15053;48.618;10.024;2022-12-26T05:31:25;7.03;;;5.07;;
27642;SDS011;15053;48.618;10.024;2022-12-26T05:34:00;6.85;;;4.68;;
27642;SDS011;15053;48.618;10.024;2022-12-26T05:39:07;7.03;;;4.47;;
27642;SDS011;15053;48.618;10.024;2022-12-26T05:41:34;7.22;;;4.43;;
27642;SDS011;15053;48.618;10.024;2022-12-26T05:44:01;7.65;;;4.75;;
27642;SDS011;15053;48.618;10.024;2022-12-26T05:46:28;6.45;;;4.43;;
27642;SDS011;15053;48.618;10.024;2022-12-26T05:48:55;7.32;;;4.20;;
27642;SDS011;15053;48.618;10.024;2022-12-26T05:51:21;10.55;;;4.45;;
27642;SDS011;15053;48.618;10.024;2022-12-26T05:53:48;6.78;;;4.25;;
27642;SDS011;15053;48.618;10.024;2022-12-26T05:56:15;5.53;;;4.07;;
27642;SDS011;15053;48.618;10.024;2022-12-26T05:58:43;6.05;;;4.18;;
27642;SDS011;15053;48.618;10.024;2022-12-26T06:01:17;8.25;;;4.13;;
27642;SDS011;15053;48.618;10.024;2022-12-26T06:03:46;5.00;;;3.80;;
27642;SDS011;15053;48.618;10.024;2022-12-26T06:06:14;5.47;;;4.00;;
27642;SDS011;15053;48.618;10.024;2022-12-26T06:08:41;7.45;;;4.90;;
27642;SDS011;15053;48.618;10.024;2022-12-26T06:11:11;7.00;;;4.22;;
27642;SDS011;15053;48.618;10.024;2022-12-26T06:13:39;7.32;;;4.40;;
27642;SDS011;15053;48.618;10.024;2022-12-26T06:16:07;7.15;;;4.72;;
27642;SDS011;15053;48.618;10.024;2022-12-26T06:18:35;8.63;;;5.07;;
27642;SDS011;15053;48.618;10.024;2022-12-26T06:21:06;6.32;;;4.63;;
27642;SDS011;15053;48.618;10.024;2022-12-26T06:23:34;8.32;;;5.20;;
27642;SDS011;15053;48.618;10.024;2022-12-26T06:26:01;8.70;;;5.20;;
27642;SDS011;15053;48.618;10.024;2022-12-26T06:28:28;9.10;;;5.45;;
27642;SDS011;15053;48.618;10.024;2022-12-26T06:31:00;7.40;;;5.45;;
27642;SDS011;15053;48.618;10.024;2022-12-26T06:33:28;8.18;;;5.25;;
27642;SDS011;15053;48.618;10.024;2022-12-26T06:38:47;9.10;;;5.80;;
27642;SDS011;15053;48.618;10.024;2022-12-26T06:41:16;11.23;;;6.63;;
27642;SDS011;15053;48.618;10.024;2022-12-26T06:43:44;8.27;;;5.93;;
27642;SDS011;15053;48.618;10.024;2022-12-26T06:46:12;11.27;;;6.38;;
27642;SDS011;15053;48.618;10.024;2022-12-26T06:48:44;10.38;;;6.50;;
27642;SDS011;15053;48.618;10.024;2022-12-26T06:51:14;10.55;;;7.13;;
27642;SDS011;15053;48.618;10.024;2022-12-26T06:53:43;10.00;;;7.03;;
27642;SDS011;15053;48.618;10.024;2022-12-26T06:56:11;10.95;;;7.18;;
27642;SDS011;15053;48.618;10.024;2022-12-26T06:58:39;8.77;;;7.03;;
27642;SDS011;15053;48.618;10.024;2022-12-26T07:01:07;11.38;;;7.13;;
27642;SDS011;15053;48.618;10.024;2022-12-26T07:03:35;9.75;;;7.15;;
27642;SDS011;15053;48.618;10.024;2022-12-26T07:06:03;10.65;;;7.07;;
27642;SDS011;15053;48.618;10.024;2022-12-26T07:08:36;13.75;;;7.85;;
27642;SDS011;15053;48.618;10.024;2022-12-26T07:11:02;12.75;;;7.35;;
27642;SDS011;15053;48.618;10.024;2022-12-26T07:13:29;10.57;;;7.40;;
27642;SDS011;15053;48.618;10.024;2022-12-26T07:15:59;10.98;;;7.78;;
27642;SDS011;15053;48.618;10.024;2022-12-26T07:18:25;13.55;;;8.55;;
27642;SDS011;15053;48.618;10.024;2022-12-26T07:20:52;13.90;;;8.93;;
27642;SDS011;15053;48.618;10.024;2022-12-26T07:23:18;18.85;;;9.82;;
27642;SDS011;15053;48.618;10.024;2022-12-26T07:25:48;13.23;;;9.20;;
27642;SDS011;15053;48.618;10.024;2022-12-26T07:28:14;13.57;;;8.98;;
27642;SDS011;15053;48.618;10.024;2022-12-26T07:30:47;13.23;;;8.57;;
27642;SDS011;15053;48.618;10.024;2022-12-26T07:33:15;13.50;;;8.10;;
27642;SDS011;15053;48.618;10.024;2022-12-26T07:35:41;16.25;;;9.82;;
27642;SDS011;15053;48.618;10.024;2022-12-26T07:38:09;12.60;;;8.88;;
27642;SDS011;15053;48.618;10.024;2022-12-26T07:40:36;12.55;;;8.63;;
27642;SDS011;15053;48.618;10.024;2022-12-26T07:43:02;13.75;;;9.55;;
27642;SDS011;15053;48.618;10.024;2022-12-26T07:45:29;13.32;;;9.07;;
27642;SDS011;15053;48.618;10.024;2022-12-26T07:47:56;14.07;;;8.98;;
27642;SDS011;15053;48.618;10.024;2022-12-26T07:50:23;14.80;;;9.65;;
27642;SDS011;15053;48.618;10.024;2022-12-26T07:52:51;13.07;;;9.43;;
27642;SDS011;15053;48.618;10.024;2022-12-26T07:55:18;17.27;;;10.63;;
27642;SDS011;15053;48.618;10.024;2022-12-26T07:57:48;14.95;;;10.30;;
27642;SDS011;15053;48.618;10.024;2022-12-26T08:00:18;14.55;;;9.73;;
27642;SDS011;15053;48.618;10.024;2022-12-26T08:02:48;16.33;;;9.98;;
27642;SDS011;15053;48.618;10.024;2022-12-26T08:07:45;15.88;;;9.95;;
27642;SDS011;15053;48.618;10.024;2022-12-26T08:10:12;20.40;;;10.57;;
27642;SDS011;15053;48.618;10.024;2022-12-26T08:12:39;16.00;;;10.98;;
27642;SDS011;15053;48.618;10.024;2022-12-26T08:15:05;16.65;;;10.85;;
27642;SDS011;15053;48.618;10.024;2022-12-26T08:17:32;17.15;;;11.48;;
27642;SDS011;15053;48.618;10.024;2022-12-26T08:19:59;18.08;;;11.63;;
27642;SDS011;15053;48.618;10.024;2022-12-26T08:22:25;17.00;;;11.25;;
27642;SDS011;15053;48.618;10.024;2022-12-26T08:24:52;19.30;;;11.80;;
27642;SDS011;15053;48.618;10.024;2022-12-26T08:27:19;15.95;;;10.43;;
27642;SDS011;15053;48.618;10.024;2022-12-26T08:29:46;18.35;;;11.35;;
27642;SDS011;15053;48.618;10.024;2022-12-26T08:32:12;19.80;;;12.77;;
27642;SDS011;15053;48.618;10.024;2022-12-26T08:34:39;20.00;;;12.32;;
27642;SDS011;15053;48.618;10.024;2022-12-26T08:37:06;20.33;;;12.27;;
27642;SDS011;15053;48.618;10.024;2022-12-26T08:39:32;22.17;;;12.32;;
27642;SDS011;15053;48.618;10.024;2022-12-26T08:41:59;20.63;;;11.90;;
27642;SDS011;15053;48.618;10.024;2022-12-26T08:44:25;19.77;;;12.07;;
27642;SDS011;15053;48.618;10.024;2022-12-26T08:46:53;19.58;;;11.50;;
27642;SDS011;15053;48.618;10.024;2022-12-26T08:49:20;19.70;;;12.23;;
27642;SDS011;15053;48.618;10.024;2022-12-26T08:51:46;21.38;;;12.65;;
27642;SDS011;15053;48.618;10.024;2022-12-26T08:54:13;20.80;;;12.23;;
27642;SDS011;15053;48.618;10.024;2022-12-26T08:56:39;22.40;;;13.27;;
27642;SDS011;15053;48.618;10.024;2022-12-26T08:59:06;23.40;;;13.23;;
27642;SDS011;15053;48.618;10.024;2022-12-26T09:01:33;20.88;;;11.95;;
27642;SDS011;15053;48.618;10.024;2022-12-26T09:04:00;24.58;;;13.32;;
27642;SDS011;15053;48.618;10.024;2022-12-26T09:06:30;23.35;;;13.43;;
27642;SDS011;15053;48.618;10.024;2022-12-26T09:08:58;22.13;;;12.88;;
27642;SDS011;15053;48.618;10.024;2022-12-26T09:11:25;24.67;;;14.57;;
27642;SDS011;15053;48.618;10.024;2022-12-26T09:13:53;22.70;;;13.50;;
27642;SDS011;15053;48.618;10.024;2022-12-26T09:16:25;22.55;;;12.60;;
27642;SDS011;15053;48.618;10.024;2022-12-26T09:19:02;23.52;;;13.45;;
27642;SDS011;15053;48.618;10.024;2022-12-26T09:21:30;21.52;;;12.68;;
27642;SDS011;15053;48.618;10.024;2022-12-26T09:23:58;19.60;;;12.73;;
27642;SDS011;15053;48.618;10.024;2022-12-26T09:26:27;20.92;;;12.15;;
27642;SDS011;15053;48.618;10.024;2022-12-26T09:28:54;24.10;;;13.93;;
27642;SDS011;15053;48.618;10.024;2022-12-26T09:31:21;21.65;;;13.00;;
27642;SDS011;15053;48.618;10.024;2022-12-26T09:33:50;24.52;;;13.65;;
27642;SDS011;15053;48.618;10.024;2022-12-26T09:36:19;22.17;;;13.07;;
27642;SDS011;15053;48.618;10.024;2022-12-26T09:38:48;21.60;;;12.90;;
27642;SDS011;15053;48.618;10.024;2022-12-26T09:41:23;23.60;;;13.95;;
27642;SDS011;15053;48.618;10.024;2022-12-26T09:44:02;23.23;;;12.80;;
27642;SDS011;15053;48.618;10.024;2022-12-26T09:46:39;24.13;;;12.85;;
27642;SDS011;15053;48.618;10.024;2022-12-26T09:49:15;23.55;;;12.77;;
27642;SDS011;15053;48.618;10.024;2022-12-26T09:51:47;24.67;;;13.77;;
27642;SDS011;15053;48.618;10.024;2022-12-26T09:54:24;22.83;;;13.23;;
27642;SDS011;15053;48.618;10.024;2022-12-26T09:56:56;23.45;;;12.30;;
27642;SDS011;15053;48.618;10.024;2022-12-26T09:59:28;27.33;;;14.20;;
27642;SDS011;15053;48.618;10.024;2022-12-26T10:01:59;24.40;;;12.93;;
27642;SDS011;15053;48.618;10.024;2022-12-26T10:04:27;22.30;;;12.48;;
27642;SDS011;15053;48.618;10.024;2022-12-26T10:07:05;24.23;;;12.52;;
27642;SDS011;15053;48.618;10.024;2022-12-26T10:09:35;26.38;;;12.63;;
27642;SDS011;15053;48.618;10.024;2022-12-26T10:15:11;22.05;;;13.05;;
27642;SDS011;15053;48.618;10.024;2022-12-26T10:17:51;22.90;;;12.50;;
27642;SDS011;15053;48.618;10.024;2022-12-26T10:20:27;20.90;;;11.90;;
27642;SDS011;15053;48.618;10.024;2022-12-26T10:25:46;20.67;;;11.75;;
27642;SDS011;15053;48.618;10.024;2022-12-26T10:30:55;17.27;;;10.82;;
27642;SDS011;15053;48.618;10.024;2022-12-26T10:33:29;18.80;;;9.45;;
27642;SDS011;15053;48.618;10.024;2022-12-26T10:36:10;14.05;;;8.50;;
27642;SDS011;15053;48.618;10.024;2022-12-26T10:38:44;16.88;;;8.98;;
27642;SDS011;15053;48.618;10.024;2022-12-26T10:41:16;12.20;;;7.38;;
27642;SDS011;15053;48.618;10.024;2022-12-26T10:43:48;11.55;;;6.15;;
27642;SDS011;15053;48.618;10.024;2022-12-26T10:49:19;10.38;;;5.35;;
27642;SDS011;15053;48.618;10.024;2022-12-26T10:51:48;9.73;;;4.95;;
27642;SDS011;15053;48.618;10.024;2022-12-26T10:54:16;8.15;;;4.90;;
27642;SDS011;15053;48.618;10.024;2022-12-26T10:56:44;6.70;;;4.53;;
27642;SDS011;15053;48.618;10.024;2022-12-26T10:59:15;4.60;;;3.33;;
27642;SDS011;15053;48.618;10.024;2022-12-26T11:01:45;7.20;;;4.57;;
27642;SDS011;15053;48.618;10.024;2022-12-26T11:04:21;7.18;;;3.25;;
27642;SDS011;15053;48.618;10.024;2022-12-26T11:07:10;5.10;;;3.25;;
27642;SDS011;15053;48.618;10.024;2022-12-26T11:09:39;6.90;;;3.20;;
27642;SDS011;15053;48.618;10.024;2022-12-26T11:12:21;6.22;;;3.80;;
27642;SDS011;15053;48.618;10.024;2022-12-26T11:14:56;4.80;;;3.45;;
27642;SDS011;15053;48.618;10.024;2022-12-26T11:17:26;6.45;;;3.03;;
27642;SDS011;15053;48.618;10.024;2022-12-26T11:22:43;3.88;;;2.88;;
27642;SDS011;15053;48.618;10.024;2022-12-26T11:25:16;5.28;;;3.28;;
27642;SDS011;15053;48.618;10.024;2022-12-26T11:27:46;5.85;;;3.20;;
27642;SDS011;15053;48.618;10.024;2022-12-26T11:30:30;3.15;;;2.53;;
27642;SDS011;15053;48.618;10.024;2022-12-26T11:35:50;7.40;;;4.30;;
27642;SDS011;15053;48.618;10.024;2022-12-26T11:38:20;4.05;;;2.60;;
27642;SDS011;15053;48.618;10.024;2022-12-26T11:41:10;3.28;;;2.17;;
27642;SDS011;15053;48.618;10.024;2022-12-26T11:49:20;4.30;;;2.30;;
27642;SDS011;15053;48.618;10.024;2022-12-26T11:54:57;2.88;;;2.17;;
27642;SDS011;15053;48.618;10.024;2022-12-26T11:57:28;2.90;;;2.08;;
27642;SDS011;15053;48.618;10.024;2022-12-26T12:00:18;3.35;;;2.28;;
27642;SDS011;15053;48.618;10.024;2022-12-26T12:02:45;2.75;;;1.80;;
27642;SDS011;15053;48.618;10.024;2022-12-26T12:05:33;2.95;;;2.25;;
27642;SDS011;15053;48.618;10.024;2022-12-26T12:08:24;4.13;;;2.53;;
27642;SDS011;15053;48.618;10.024;2022-12-26T12:10:59;3.90;;;1.98;;
27642;SDS011;15053;48.618;10.024;2022-12-26T12:13:40;4.82;;;2.00;;
27642;SDS011;15053;48.618;10.024;2022-12-26T12:16:25;2.17;;;1.70;;
27642;SDS011;15053;48.618;10.024;2022-12-26T12:21:42;1.60;;;1.40;;
27642;SDS011;15053;48.618;10.024;2022-12-26T12:24:29;1.55;;;1.20;;
27642;SDS011;15053;48.618;10.024;2022-12-26T12:27:28;2.00;;;1.10;;
27642;SDS011;15053;48.618;10.024;2022-12-26T12:30:21;1.40;;;1.30;;
27642;SDS011;15053;48.618;10.024;2022-12-26T12:38:33;1.95;;;1.30;;
27642;SDS011;15053;48.618;10.024;2022-12-26T12:43:52;1.63;;;1.05;;
27642;SDS011;15053;48.618;10.024;2022-12-26T12:57:30;5.07;;;2.13;;
27642;SDS011;15053;48.618;10.024;2022-12-26T13:08:05;1.55;;;1.30;;
27642;SDS011;15053;48.618;10.024;2022-12-26T13:10:52;1.42;;;1.15;;
27642;SDS011;15053;48.618;10.024;2022-12-26T13:16:11;1.42;;;1.30;;
27642;SDS011;15053;48.618;10.024;2022-12-26T13:18:43;1.23;;;1.05;;
27642;SDS011;15053;48.618;10.024;2022-12-26T13:21:15;1.23;;;1.13;;
27642;SDS011;15053;48.618;10.024;2022-12-26T13:23:45;3.72;;;1.60;;
27642;SDS011;15053;48.618;10.024;2022-12-26T13:26:50;1.70;;;1.30;;
27642;SDS011;15053;48.618;10.024;2022-12-26T13:29:36;1.85;;;1.10;;
27642;SDS011;15053;48.618;10.024;2022-12-26T13:32:18;1.33;;;1.00;;
27642;SDS011;15053;48.618;10.024;2022-12-26T13:34:46;2.00;;;1.25;;
27642;SDS011;15053;48.618;10.024;2022-12-26T13:37:52;1.13;;;1.00;;
27642;SDS011;15053;48.618;10.024;2022-12-26T13:40:13;2.80;;;1.08;;
27642;SDS011;15053;48.618;10.024;2022-12-26T13:42:43;2.65;;;1.20;;
27642;SDS011;15053;48.618;10.024;2022-12-26T13:50:53;3.30;;;1.60;;
27642;SDS011;15053;48.618;10.024;2022-12-26T13:55:52;2.67;;;1.92;;
27642;SDS011;15053;48.618;10.024;2022-12-26T14:23:56;2.30;;;1.30;;
27642;SDS011;15053;48.618;10.024;2022-12-26T14:26:33;1.88;;;1.50;;
27642;SDS011;15053;48.618;10.024;2022-12-26T14:34:40;0.60;;;0.60;;
27642;SDS011;15053;48.618;10.024;2022-12-26T14:45:36;0.60;;;0.60;;
27642;SDS011;15053;48.618;10.024;2022-12-26T14:55:46;2.33;;;1.48;;
27642;SDS011;15053;48.618;10.024;2022-12-26T14:58:28;1.55;;;0.82;;
27642;SDS011;15053;48.618;10.024;2022-12-26T15:01:45;1.38;;;1.00;;
27642;SDS011;15053;48.618;10.024;2022-12-26T15:06:57;5.55;;;3.47;;
27642;SDS011;15053;48.618;10.024;2022-12-26T15:09:51;2.47;;;1.95;;
27642;SDS011;15053;48.618;10.024;2022-12-26T15:12:28;1.40;;;1.08;;
27642;SDS011;15053;48.618;10.024;2022-12-26T15:20:50;0.73;;;0.60;;
27642;SDS011;15053;48.618;10.024;2022-12-26T15:23:40;1.33;;;0.88;;
27642;SDS011;15053;48.618;10.024;2022-12-26T15:26:55;1.15;;;0.90;;
27642;SDS011;15053;48.618;10.024;2022-12-26T15:30:00;1.85;;;0.70;;
27642;SDS011;15053;48.618;10.024;2022-12-26T15:35:27;6.28;;;3.65;;
27642;SDS011;15053;48.618;10.024;2022-12-26T15:40:43;0.73;;;0.73;;
27642;SDS011;15053;48.618;10.024;2022-12-26T15:43:30;1.50;;;0.90;;
27642;SDS011;15053;48.618;10.024;2022-12-26T15:57:15;0.82;;;0.80;;
27642;SDS011;15053;48.618;10.024;2022-12-26T15:59:57;1.63;;;1.20;;
27642;SDS011;15053;48.618;10.024;2022-12-26T16:05:48;1.38;;;1.08;;
27642;SDS011;15053;48.618;10.024;2022-12-26T16:11:14;1.80;;;1.10;;
27642;SDS011;15053;48.618;10.024;2022-12-26T16:14:02;1.50;;;1.30;;
27642;SDS011;15053;48.618;10.024;2022-12-26T16:16:31;1.67;;;1.20;;
27642;SDS011;15053;48.618;10.024;2022-12-26T16:19:15;1.38;;;1.25;;
27642;SDS011;15053;48.618;10.024;2022-12-26T16:21:59;2.78;;;1.88;;
27642;SDS011;15053;48.618;10.024;2022-12-26T16:24:54;1.80;;;1.50;;
27642;SDS011;15053;48.618;10.024;2022-12-26T16:27:22;2.15;;;1.30;;
27642;SDS011;15053;48.618;10.024;2022-12-26T16:29:55;1.48;;;1.27;;
27642;SDS011;15053;48.618;10.024;2022-12-26T16:32:28;2.10;;;1.75;;
27642;SDS011;15053;48.618;10.024;2022-12-26T16:35:03;1.80;;;1.38;;
27642;SDS011;15053;48.618;10.024;2022-12-26T16:37:31;2.45;;;1.40;;
27642;SDS011;15053;48.618;10.024;2022-12-26T16:42:36;2.40;;;1.92;;
27642;SDS011;15053;48.618;10.024;2022-12-26T16:45:15;3.95;;;2.58;;
27642;SDS011;15053;48.618;10.024;2022-12-26T16:47:44;4.57;;;2.80;;
27642;SDS011;15053;48.618;10.024;2022-12-26T16:50:14;5.10;;;3.20;;
27642;SDS011;15053;48.618;10.024;2022-12-26T16:52:43;4.57;;;2.70;;
27642;SDS011;15053;48.618;10.024;2022-12-26T16:55:22;5.55;;;3.17;;
27642;SDS011;15053;48.618;10.024;2022-12-26T16:58:00;3.83;;;2.90;;
27642;SDS011;15053;48.618;10.024;2022-12-26T17:00:36;4.15;;;2.97;;
27642;SDS011;15053;48.618;10.024;2022-12-26T17:03:04;2.95;;;2.20;;
27642;SDS011;15053;48.618;10.024;2022-12-26T17:05:36;3.38;;;2.55;;
27642;SDS011;15053;48.618;10.024;2022-12-26T17:08:03;3.42;;;2.30;;
27642;SDS011;15053;48.618;10.024;2022-12-26T17:10:34;3.83;;;2.35;;
27642;SDS011;15053;48.618;10.024;2022-12-26T17:13:03;3.83;;;2.20;;
27642;SDS011;15053;48.618;10.024;2022-12-26T17:15:35;3.13;;;2.42;;
27642;SDS011;15053;48.618;10.024;2022-12-26T17:18:28;3.03;;;1.90;;
27642;SDS011;15053;48.618;10.024;2022-12-26T17:21:14;2.72;;;1.95;;
27642;SDS011;15053;48.618;10.024;2022-12-26T17:26:23;3.83;;;2.13;;
27642;SDS011;15053;48.618;10.024;2022-12-26T17:28:52;4.18;;;2.60;;
27642;SDS011;15053;48.618;10.024;2022-12-26T17:31:26;2.97;;;2.10;;
27642;SDS011;15053;48.618;10.024;2022-12-26T17:34:13;3.15;;;2.00;;
27642;SDS011;15053;48.618;10.024;2022-12-26T17:36:45;3.03;;;1.95;;
27642;SDS011;15053;48.618;10.024;2022-12-26T17:39:32;1.75;;;1.30;;
27642;SDS011;15053;48.618;10.024;2022-12-26T17:41:59;3.45;;;1.65;;
27642;SDS011;15053;48.618;10.024;2022-12-26T17:44:40;1.70;;;1.40;;
27642;SDS011;15053;48.618;10.024;2022-12-26T17:49:52;2.20;;;1.60;;
27642;SDS011;15053;48.618;10.024;2022-12-26T17:52:20;1.98;;;1.48;;
27642;SDS011;15053;48.618;10.024;2022-12-26T17:54:50;1.60;;;1.48;;
27642;SDS011;15053;48.618;10.024;2022-12-26T17:57:22;1.40;;;1.20;;
27642;SDS011;15053;48.618;10.024;2022-12-26T17:59:51;2.85;;;1.20;;
27642;SDS011;15053;48.618;10.024;2022-12-26T18:02:18;1.90;;;1.50;;
27642;SDS011;15053;48.618;10.024;2022-12-26T18:04:45;2.15;;;1.35;;
27642;SDS011;15053;48.618;10.024;2022-12-26T18:07:17;2.00;;;1.55;;
27642;SDS011;15053;48.618;10.024;2022-12-26T18:09:57;1.85;;;1.30;;
27642;SDS011;15053;48.618;10.024;2022-12-26T18:12:24;2.15;;;1.60;;
27642;SDS011;15053;48.618;10.024;2022-12-26T18:14:50;3.35;;;1.85;;
27642;SDS011;15053;48.618;10.024;2022-12-26T18:17:26;2.47;;;1.52;;
27642;SDS011;15053;48.618;10.024;2022-12-26T18:19:54;8.23;;;2.05;;
27642;SDS011;15053;48.618;10.024;2022-12-26T18:22:21;3.35;;;2.25;;
27642;SDS011;15053;48.618;10.024;2022-12-26T18:24:47;2.92;;;2.30;;
27642;SDS011;15053;48.618;10.024;2022-12-26T18:27:17;2.95;;;2.13;;